Strona główna
METAR-TAF:

METAR-TAF

Lotnisko :

Newark-Heath Airport

Newark, Ohio, Stany Zjednoczone

Szerokość geograficzna: 40-01-22N, Długość geograficzna: 082-27-45W, wysokość: 269 m

Aktualna obserwacja pogody

Raport powstał 38 minut temu, godzina 21:54 UTC
Wiatr 7 kt od północno-północny zachód
Temperatura 23°C
Wilgotność 41%
Ciśnienie 1019 hPa
Widzialność: 16.1 km
Mało chmury na wysokości 5500 ft
Rozproszone chmury na wysokości 7000 ft

METAR: KVTA 302154Z AUTO 33007KT 10SM FEW055 SCT070 23/09 A3008 RMK AO2 SLP183 T02280094 $

czas: 18:32 (22:32 UTC)


TAF: brakujący

Obserwacja i prognoza pogody dla ponad 4000 lotnisk (raport METAR i TAF).

Dostępne stacje oznaczono żółtymi i czerwonymi punktami na mapie.

Najedź kursorem aby zobaczyć nazwę stacji.

Kliknij aby zobaczyć obserwacje i prognozy pogody.

Aby zmienić mapę: kliknij na zielony przycisk z czarnym krzyżykiem, aby powiększyć; na zielony przycisk z myślnikiem, aby pomniejszyć; na zielone strzałki, aby przejść do map sąsiednich.


METAR-TAF: